Time;durP1;ratioP1;P1;durP2;ratioP2;P2;SDS_P1;SDS_P2;PMS_P1;PMS_P2;Temp;Humidity;BMP_temperature;BMP_pressure;BME280_temperature;BME280_humidity;BME280_pressure;Samples;Min_cycle;Max_cycle;Signal;HPM_P1;HPM_P2
2022/05/30 00:01:49;;;;;;;13.77;7.40;;;9.10;99.90;;;;;;4429825;28;656649;-69
2022/05/30 00:04:36;;;;;;;12.13;6.53;;;9.10;99.90;;;;;;4397246;28;656765;-69
2022/05/30 00:07:24;;;;;;;12.63;6.97;;;9.10;99.90;;;;;;4420173;28;657498;-69
2022/05/30 00:10:11;;;;;;;10.80;7.30;;;9.10;99.90;;;;;;4400789;28;657629;-69
2022/05/30 00:12:58;;;;;;;17.53;8.37;;;9.00;99.90;;;;;;4422774;28;657351;-69
2022/05/30 00:15:47;;;;;;;17.07;7.57;;;9.10;99.90;;;;;;4402236;28;656234;-69
2022/05/30 00:18:34;;;;;;;13.40;8.03;;;9.00;99.90;;;;;;4425084;28;657010;-69
2022/05/30 00:21:22;;;;;;;15.17;7.60;;;9.00;99.90;;;;;;4400504;28;656366;-69
2022/05/30 00:24:09;;;;;;;14.23;7.80;;;9.00;99.90;;;;;;4421678;28;656751;-68
2022/05/30 00:26:57;;;;;;;17.60;8.53;;;9.00;99.90;;;;;;4395950;28;657215;-68
2022/05/30 00:29:44;;;;;;;16.50;8.60;;;9.00;99.90;;;;;;4420767;28;656480;-68
2022/05/30 00:32:32;;;;;;;22.37;8.73;;;9.10;99.90;;;;;;4399782;28;656461;-69
2022/05/30 00:35:20;;;;;;;15.97;9.37;;;9.00;99.90;;;;;;4425220;28;656565;-69
2022/05/30 00:38:07;;;;;;;12.70;8.67;;;9.00;99.90;;;;;;4431668;28;656089;-68
2022/05/30 00:40:56;;;;;;;20.40;9.63;;;9.00;99.90;;;;;;4416424;28;655942;-69
2022/05/30 00:43:44;;;;;;;17.13;9.23;;;9.00;99.90;;;;;;4417454;28;656935;-69
2022/05/30 00:46:32;;;;;;;17.47;9.40;;;9.00;99.90;;;;;;4402696;28;656516;-69
2022/05/30 00:49:20;;;;;;;17.17;9.17;;;8.90;99.90;;;;;;4420305;28;656820;-69
2022/05/30 00:52:08;;;;;;;18.77;10.30;;;9.00;99.90;;;;;;4399206;28;657449;-69
2022/05/30 00:54:58;;;;;;;21.57;10.37;;;9.00;99.90;;;;;;4397946;28;657107;-69
2022/05/30 00:57:46;;;;;;;35.93;11.10;;;9.00;99.90;;;;;;4398623;28;657626;-70
2022/05/30 01:00:33;;;;;;;29.00;9.50;;;9.00;99.90;;;;;;4426303;28;658199;-68
2022/05/30 01:06:33;;;;;;;25.00;10.43;;;9.00;99.90;;;;;;4374419;28;658498;-69
2022/05/30 01:09:23;;;;;;;28.13;10.60;;;8.90;99.90;;;;;;4379534;28;657840;-69
2022/05/30 01:12:11;;;;;;;27.50;10.27;;;8.90;99.90;;;;;;4406329;28;657411;-68
2022/05/30 01:14:59;;;;;;;30.53;10.57;;;8.90;99.90;;;;;;4417855;28;657806;-69
2022/05/30 01:17:50;;;;;;;23.90;10.57;;;8.90;99.90;;;;;;4398467;28;657444;-68
2022/05/30 01:20:45;;;;;;;25.77;10.20;;;8.80;99.90;;;;;;4393325;28;658312;-69
2022/05/30 01:23:49;;;;;;;26.23;9.97;;;8.90;99.90;;;;;;4401156;28;657622;-68
2022/05/30 01:26:43;;;;;;;23.73;10.27;;;8.90;99.90;;;;;;4379161;28;656531;-69
2022/05/30 01:29:33;;;;;;;21.50;9.07;;;8.90;99.90;;;;;;4384631;28;658089;-68
2022/05/30 01:32:21;;;;;;;24.17;9.77;;;8.80;99.90;;;;;;4406776;28;656705;-69
2022/05/30 01:35:09;;;;;;;17.83;9.30;;;8.80;99.90;;;;;;4427190;28;656972;-68
2022/05/30 01:37:57;;;;;;;24.30;9.60;;;8.80;99.90;;;;;;4407233;28;657532;-68
2022/05/30 01:40:44;;;;;;;29.63;9.80;;;8.80;99.90;;;;;;4426988;28;656769;-68
2022/05/30 01:43:31;;;;;;;28.90;9.93;;;8.80;99.90;;;;;;4405934;28;656968;-69
2022/05/30 01:46:21;;;;;;;34.23;10.87;;;8.80;99.90;;;;;;4424146;28;657500;-68
2022/05/30 01:49:08;;;;;;;41.20;11.97;;;8.80;99.90;;;;;;4404444;28;658356;-69
2022/05/30 01:51:55;;;;;;;34.67;11.70;;;8.80;99.90;;;;;;4407432;28;657417;-69
2022/05/30 01:54:42;;;;;;;29.63;10.03;;;8.80;99.90;;;;;;4426457;28;658643;-68
2022/05/30 01:57:30;;;;;;;27.00;10.30;;;8.90;99.90;;;;;;4424905;28;657321;-68
2022/05/30 02:00:18;;;;;;;26.23;11.33;;;8.90;99.90;;;;;;4428964;28;657902;-69
2022/05/30 02:03:07;;;;;;;28.37;10.97;;;8.80;99.90;;;;;;4420181;28;657913;-68
2022/05/30 02:05:54;;;;;;;16.03;9.07;;;8.80;99.90;;;;;;4427025;28;658249;-70
2022/05/30 02:08:41;;;;;;;24.57;11.03;;;8.80;99.90;;;;;;4413899;28;658258;-70
2022/05/30 02:11:28;;;;;;;23.70;11.27;;;8.80;99.90;;;;;;4427393;28;658927;-68
2022/05/30 02:14:16;;;;;;;23.17;12.60;;;8.80;99.90;;;;;;4408530;28;657206;-68
2022/05/30 02:17:04;;;;;;;26.30;12.80;;;8.80;99.90;;;;;;4432215;28;658432;-68
2022/05/30 02:19:54;;;;;;;19.80;11.63;;;8.80;99.90;;;;;;4403678;28;657673;-68
2022/05/30 02:22:41;;;;;;;19.47;11.17;;;8.80;99.90;;;;;;4405694;28;657456;-69
2022/05/30 02:25:29;;;;;;;21.70;11.50;;;8.90;99.90;;;;;;4428180;28;657632;-68
2022/05/30 02:28:16;;;;;;;19.17;12.23;;;8.90;99.90;;;;;;4403857;28;657414;-68
2022/05/30 02:31:03;;;;;;;22.23;11.70;;;8.80;99.90;;;;;;4425830;28;658543;-69
2022/05/30 02:36:57;;;;;;;23.53;11.97;;;8.80;99.90;;;;;;4397768;28;657944;-69
2022/05/30 02:39:44;;;;;;;18.33;11.60;;;8.80;99.90;;;;;;4424204;28;658122;-69
2022/05/30 02:42:31;;;;;;;16.57;11.57;;;8.80;99.90;;;;;;4405415;28;657599;-69
2022/05/30 02:45:18;;;;;;;20.37;12.37;;;8.80;99.90;;;;;;4425597;28;657841;-68
2022/05/30 02:48:06;;;;;;;20.73;11.90;;;8.90;99.90;;;;;;4409454;28;657362;-68
2022/05/30 02:50:53;;;;;;;24.42;12.25;;;8.90;99.90;;;;;;4426630;28;658487;-68
2022/05/30 02:53:42;;;;;;;23.13;12.43;;;8.90;99.90;;;;;;4407125;28;657889;-68
2022/05/30 02:56:29;;;;;;;18.47;10.23;;;8.90;99.90;;;;;;4429143;28;657838;-68
2022/05/30 02:59:16;;;;;;;20.77;11.13;;;8.90;99.90;;;;;;4404037;28;657529;-68
2022/05/30 03:02:04;;;;;;;18.60;10.73;;;8.90;99.90;;;;;;4427371;28;658953;-68
2022/05/30 03:04:51;;;;;;;20.08;11.57;;;8.90;99.90;;;;;;4403375;28;658211;-68
2022/05/30 03:07:38;;;;;;;16.93;10.30;;;8.90;99.90;;;;;;4428111;28;658165;-69
2022/05/30 03:10:27;;;;;;;16.50;11.03;;;8.90;99.90;;;;;;4404718;28;657494;-68
2022/05/30 03:13:14;;;;;;;18.70;9.63;;;8.80;99.90;;;;;;4429499;28;657602;-68
2022/05/30 03:16:01;;;;;;;16.33;10.40;;;8.90;99.90;;;;;;4401263;28;657348;-68
2022/05/30 03:18:48;;;;;;;22.50;11.67;;;8.90;99.90;;;;;;4426232;28;658819;-68
2022/05/30 03:21:35;;;;;;;24.30;11.73;;;8.90;99.90;;;;;;4405808;28;657518;-69
2022/05/30 03:24:23;;;;;;;23.17;11.50;;;8.90;99.90;;;;;;4425030;28;658837;-68
2022/05/30 03:27:12;;;;;;;17.90;11.10;;;8.80;99.90;;;;;;4408622;28;658279;-68
2022/05/30 03:29:59;;;;;;;19.00;11.90;;;8.90;99.90;;;;;;4426765;28;657197;-68
2022/05/30 03:32:46;;;;;;;26.77;12.20;;;8.90;99.90;;;;;;4405692;28;658350;-68
2022/05/30 03:35:33;;;;;;;18.53;11.00;;;8.90;99.90;;;;;;4427609;28;657373;-69
2022/05/30 03:38:21;;;;;;;20.60;11.27;;;8.90;99.90;;;;;;4407005;28;658119;-69
2022/05/30 03:41:09;;;;;;;19.97;10.93;;;8.90;99.90;;;;;;4422850;28;657967;-68
2022/05/30 03:44:00;;;;;;;23.43;11.00;;;8.90;99.90;;;;;;4406356;28;657591;-68
2022/05/30 03:46:47;;;;;;;18.80;11.10;;;9.00;99.90;;;;;;4403190;28;658769;-69
2022/05/30 03:49:35;;;;;;;22.87;10.17;;;9.00;99.90;;;;;;4418897;28;657446;-69
2022/05/30 03:52:22;;;;;;;17.00;9.63;;;9.00;99.90;;;;;;4424875;28;658223;-71
2022/05/30 03:55:15;;;;;;;25.67;10.10;;;9.00;99.90;;;;;;4428811;28;656674;-68
2022/05/30 03:58:03;;;;;;;17.33;10.37;;;9.00;99.90;;;;;;4404810;28;658135;-68
2022/05/30 04:00:52;;;;;;;17.03;10.57;;;9.00;99.90;;;;;;4415497;28;657295;-69
2022/05/30 04:03:40;;;;;;;18.67;11.60;;;9.00;99.90;;;;;;4422480;28;657701;-70
2022/05/30 04:06:27;;;;;;;20.03;10.50;;;9.00;99.90;;;;;;4403263;28;658706;-68
2022/05/30 04:09:14;;;;;;;18.47;10.47;;;9.00;99.90;;;;;;4427985;28;658363;-68
2022/05/30 04:12:01;;;;;;;17.73;10.43;;;9.00;99.90;;;;;;4399962;28;658046;-68
2022/05/30 04:14:54;;;;;;;18.73;9.47;;;8.90;99.90;;;;;;4426004;28;657869;-68
2022/05/30 04:17:42;;;;;;;17.77;9.37;;;9.00;99.90;;;;;;4380209;28;656709;-69
2022/05/30 04:20:30;;;;;;;14.20;9.43;;;8.90;99.90;;;;;;4426041;28;656659;-69
2022/05/30 04:23:17;;;;;;;17.10;9.80;;;9.00;99.90;;;;;;4431062;28;657146;-68
2022/05/30 04:26:05;;;;;;;17.93;11.03;;;9.00;99.90;;;;;;4421790;28;657216;-68
2022/05/30 04:28:52;;;;;;;18.50;10.67;;;9.00;99.90;;;;;;4402298;28;657795;-68
2022/05/30 04:31:39;;;;;;;17.17;10.87;;;9.00;99.90;;;;;;4420351;28;657871;-69
2022/05/30 04:34:28;;;;;;;17.07;11.17;;;9.00;99.90;;;;;;4401116;28;658601;-69
2022/05/30 04:37:15;;;;;;;15.00;10.33;;;9.10;99.90;;;;;;4407657;28;657891;-69
2022/05/30 04:40:03;;;;;;;15.17;9.40;;;9.10;99.90;;;;;;4426747;28;658628;-68
2022/05/30 04:42:50;;;;;;;17.50;8.83;;;9.10;99.90;;;;;;4415872;28;656254;-69
2022/05/30 04:45:37;;;;;;;14.57;8.77;;;9.20;99.90;;;;;;4428135;28;657120;-68
2022/05/30 04:48:24;;;;;;;15.53;8.47;;;9.20;99.90;;;;;;4422897;28;656407;-68
2022/05/30 04:51:13;;;;;;;13.10;7.67;;;9.20;99.90;;;;;;4407032;28;657390;-68
2022/05/30 04:54:00;;;;;;;12.57;8.30;;;9.20;99.90;;;;;;4402111;28;657168;-69
2022/05/30 04:56:47;;;;;;;16.37;7.83;;;9.30;99.90;;;;;;4428356;28;656355;-68
2022/05/30 04:59:35;;;;;;;12.67;7.83;;;9.30;99.90;;;;;;4415279;28;656670;-69
2022/05/30 05:02:22;;;;;;;14.37;8.60;;;9.30;99.90;;;;;;4427739;28;657068;-69
2022/05/30 05:05:10;;;;;;;13.13;7.77;;;9.30;99.90;;;;;;4425146;28;656099;-68
2022/05/30 05:08:06;;;;;;;12.53;7.50;;;9.20;99.90;;;;;;4405008;28;657533;-69
2022/05/30 05:10:54;;;;;;;16.50;8.13;;;9.20;99.90;;;;;;4403379;28;657224;-69
2022/05/30 05:13:41;;;;;;;11.20;7.53;;;9.20;99.90;;;;;;4405603;28;656350;-68
2022/05/30 05:16:30;;;;;;;10.67;7.00;;;9.20;99.90;;;;;;4424329;28;656469;-68
2022/05/30 05:19:17;;;;;;;12.10;6.93;;;9.20;99.90;;;;;;4405958;28;656932;-69
2022/05/30 05:22:06;;;;;;;10.93;7.80;;;9.20;99.90;;;;;;4424676;28;656292;-69
2022/05/30 05:24:54;;;;;;;11.97;6.63;;;9.10;99.90;;;;;;4427018;28;656360;-69
2022/05/30 05:27:42;;;;;;;11.93;7.37;;;9.10;99.90;;;;;;4404397;28;656695;-69
2022/05/30 05:30:29;;;;;;;11.20;7.00;;;9.20;99.90;;;;;;4418389;28;656820;-68
2022/05/30 05:33:17;;;;;;;11.27;6.67;;;9.20;99.90;;;;;;4405174;28;659678;-68
2022/05/30 05:36:06;;;;;;;9.47;6.77;;;9.20;99.90;;;;;;4420793;28;656328;-69
2022/05/30 05:38:53;;;;;;;8.83;6.57;;;9.20;99.90;;;;;;4431742;28;656041;-67
2022/05/30 05:41:43;;;;;;;10.10;6.17;;;9.30;99.90;;;;;;4413751;28;655833;-69
2022/05/30 05:44:30;;;;;;;9.40;5.63;;;9.40;99.90;;;;;;4413010;28;656411;-69
2022/05/30 05:47:17;;;;;;;10.27;6.60;;;9.40;99.90;;;;;;4422319;28;656099;-67
2022/05/30 05:50:06;;;;;;;8.67;6.37;;;9.40;99.90;;;;;;4431087;28;656894;-69
2022/05/30 05:52:54;;;;;;;13.90;6.13;;;9.40;99.90;;;;;;4432831;28;655553;-68
2022/05/30 05:55:41;;;;;;;10.03;5.80;;;9.40;99.90;;;;;;4410068;28;656842;-67
2022/05/30 05:58:30;;;;;;;8.67;5.80;;;9.30;99.90;;;;;;4429300;28;656920;-68
2022/05/30 06:01:19;;;;;;;13.70;6.17;;;9.20;99.90;;;;;;4411482;28;656434;-67
2022/05/30 06:04:07;;;;;;;13.73;6.47;;;9.20;99.90;;;;;;4410214;28;656297;-68
2022/05/30 06:06:54;;;;;;;10.30;6.55;;;9.20;99.90;;;;;;4428925;28;656809;-67
2022/05/30 06:09:41;;;;;;;9.17;6.50;;;9.20;99.90;;;;;;4404889;28;656828;-67
2022/05/30 06:12:28;;;;;;;14.17;7.60;;;9.20;99.90;;;;;;4425933;28;656714;-67
2022/05/30 06:15:18;;;;;;;10.57;7.13;;;9.30;99.90;;;;;;4409666;28;657036;-67
2022/05/30 06:18:05;;;;;;;15.17;6.70;;;9.20;99.90;;;;;;4404967;28;657014;-68
2022/05/30 06:20:58;;;;;;;9.80;5.80;;;9.30;99.90;;;;;;4428256;28;657628;-68
2022/05/30 06:23:46;;;;;;;10.27;6.30;;;9.30;99.90;;;;;;4396840;28;655109;-69
2022/05/30 06:26:33;;;;;;;13.93;6.10;;;9.50;99.90;;;;;;4420854;28;658023;-68
2022/05/30 06:29:21;;;;;;;15.60;5.90;;;9.40;99.90;;;;;;4397325;28;656555;-68
2022/05/30 06:32:10;;;;;;;8.40;5.77;;;9.50;99.90;;;;;;4427409;28;656143;-67
2022/05/30 06:34:57;;;;;;;9.10;5.23;;;9.50;99.90;;;;;;4412893;28;655735;-68
2022/05/30 06:37:45;;;;;;;11.53;5.93;;;9.40;99.90;;;;;;4424512;28;654990;-68
2022/05/30 06:40:32;;;;;;;7.73;5.93;;;9.50;99.90;;;;;;4399919;28;657122;-67
2022/05/30 06:43:19;;;;;;;9.57;5.33;;;9.60;99.90;;;;;;4423393;28;655646;-68
2022/05/30 06:46:06;;;;;;;7.50;5.80;;;9.60;99.90;;;;;;4405098;28;656435;-67
2022/05/30 06:48:56;;;;;;;10.48;5.72;;;9.80;99.90;;;;;;4431564;28;656926;-67
2022/05/30 06:51:44;;;;;;;8.57;5.83;;;9.80;99.90;;;;;;4402035;28;657136;-67
2022/05/30 06:54:31;;;;;;;8.70;5.77;;;9.70;99.90;;;;;;4409638;28;655487;-68
2022/05/30 07:00:23;;;;;;;11.70;6.90;;;9.70;99.90;;;;;;4398579;28;657074;-67
2022/05/30 07:03:10;;;;;;;11.47;6.90;;;9.40;99.90;;;;;;4411833;28;656617;-68
2022/05/30 07:05:59;;;;;;;12.97;7.23;;;9.30;99.90;;;;;;4425872;28;657362;-68
2022/05/30 07:08:47;;;;;;;16.03;7.80;;;9.30;99.90;;;;;;4411268;28;656709;-68
2022/05/30 07:11:36;;;;;;;12.73;7.50;;;9.10;99.90;;;;;;4422226;28;657146;-68
2022/05/30 07:14:23;;;;;;;11.37;6.90;;;9.20;99.90;;;;;;4399525;28;657448;-67
2022/05/30 07:17:11;;;;;;;10.83;7.20;;;9.20;99.90;;;;;;4406079;28;657393;-68
2022/05/30 07:19:58;;;;;;;10.20;7.40;;;9.30;99.90;;;;;;4437288;28;657080;-68
2022/05/30 07:22:47;;;;;;;12.60;7.10;;;9.50;99.90;;;;;;4410727;28;656916;-68
2022/05/30 07:25:35;;;;;;;13.73;7.60;;;9.50;99.90;;;;;;4432538;28;656247;-68
2022/05/30 07:28:25;;;;;;;10.30;6.83;;;9.70;99.90;;;;;;4408334;28;656572;-67
2022/05/30 07:31:16;;;;;;;9.43;6.23;;;9.80;99.90;;;;;;4405468;28;657485;-67
2022/05/30 07:34:03;;;;;;;11.83;6.50;;;9.70;99.90;;;;;;4407753;28;655850;-67
2022/05/30 07:36:51;;;;;;;13.63;6.50;;;9.80;99.90;;;;;;4412648;28;656413;-67
2022/05/30 07:39:39;;;;;;;10.93;5.87;;;9.90;99.90;;;;;;4431972;28;656810;-67
2022/05/30 07:42:26;;;;;;;10.37;6.90;;;9.90;99.90;;;;;;4405444;28;656697;-67
2022/05/30 07:45:14;;;;;;;10.97;6.40;;;10.00;99.90;;;;;;4419975;28;656779;-67
2022/05/30 07:48:02;;;;;;;9.80;6.83;;;10.20;99.90;;;;;;4408637;28;657728;-68
2022/05/30 07:50:50;;;;;;;12.00;6.67;;;10.30;99.90;;;;;;4427054;28;656724;-68
2022/05/30 07:53:38;;;;;;;9.83;7.00;;;10.60;99.90;;;;;;4415916;28;658276;-68
2022/05/30 07:56:27;;;;;;;15.10;6.30;;;11.20;99.90;;;;;;4403665;28;656635;-69
2022/05/30 07:59:14;;;;;;;11.65;5.90;;;11.20;99.90;;;;;;4421862;28;657650;-68
2022/05/30 08:02:01;;;;;;;10.83;5.93;;;11.20;99.90;;;;;;4397591;28;657373;-68
2022/05/30 08:04:48;;;;;;;8.13;5.43;;;11.40;99.90;;;;;;4428302;28;658421;-68
2022/05/30 08:07:36;;;;;;;8.53;6.10;;;11.10;99.90;;;;;;4403323;28;656814;-68
2022/05/30 08:10:23;;;;;;;9.95;5.28;;;10.90;99.90;;;;;;4422881;28;658793;-68
2022/05/30 08:13:12;;;;;;;12.07;5.85;;;11.00;99.90;;;;;;4403943;28;656803;-68
2022/05/30 08:15:59;;;;;;;7.90;5.53;;;11.10;99.90;;;;;;4427857;28;656945;-68
2022/05/30 08:18:46;;;;;;;10.67;6.03;;;11.10;99.90;;;;;;4400436;28;656446;-68
2022/05/30 08:21:33;;;;;;;10.00;5.77;;;11.30;99.90;;;;;;4429206;28;658426;-67
2022/05/30 08:24:21;;;;;;;8.97;6.03;;;11.00;99.90;;;;;;4403426;28;657497;-68
2022/05/30 08:27:08;;;;;;;11.83;6.10;;;11.00;99.90;;;;;;4430935;28;657132;-68
2022/05/30 08:29:57;;;;;;;10.67;5.40;;;11.70;99.90;;;;;;4409618;28;658012;-68
2022/05/30 08:32:45;;;;;;;10.30;5.53;;;12.80;99.90;;;;;;4421412;28;659476;-69
2022/05/30 08:35:32;;;;;;;9.87;5.20;;;12.80;99.90;;;;;;4402159;28;657862;-68
2022/05/30 08:38:19;;;;;;;10.03;4.83;;;12.90;99.90;;;;;;4425924;28;656229;-68
2022/05/30 08:44:11;;;;;;;9.10;3.83;;;13.10;99.90;;;;;;4378746;28;657051;-68
2022/05/30 08:47:02;;;;;;;8.83;4.40;;;12.50;99.90;;;;;;4424820;28;656799;-68
2022/05/30 08:49:50;;;;;;;6.23;4.00;;;12.20;99.90;;;;;;4405250;28;657054;-68
2022/05/30 08:52:43;;;;;;;7.13;3.83;;;12.40;99.90;;;;;;4401651;28;657497;-68
2022/05/30 08:55:38;;;;;;;6.17;3.53;;;12.20;99.90;;;;;;4383039;28;657550;-68
2022/05/30 08:58:38;;;;;;;4.47;2.97;;;12.40;99.90;;;;;;4407086;28;657533;-68
2022/05/30 09:01:28;;;;;;;7.40;3.90;;;12.00;99.90;;;;;;4392164;28;656506;-68
2022/05/30 09:04:22;;;;;;;27.57;16.00;;;12.50;99.90;;;;;;4412196;28;656558;-69
2022/05/30 09:07:11;;;;;;;9.80;3.90;;;13.00;99.90;;;;;;4396771;28;660150;-68
2022/05/30 09:10:01;;;;;;;6.40;3.80;;;13.20;99.90;;;;;;4406938;28;656448;-68
2022/05/30 09:12:50;;;;;;;5.10;2.87;;;13.50;99.90;;;;;;4405473;28;657220;-68
2022/05/30 09:15:41;;;;;;;6.33;3.00;;;13.80;99.90;;;;;;4406071;28;657939;-69
2022/05/30 09:18:31;;;;;;;5.40;2.53;;;13.40;99.90;;;;;;4406084;28;657112;-68
2022/05/30 09:21:20;;;;;;;3.80;2.80;;;13.30;99.90;;;;;;4389358;28;657026;-69
2022/05/30 09:24:07;;;;;;;6.03;3.10;;;12.60;99.90;;;;;;4398649;28;658345;-68
2022/05/30 09:26:57;;;;;;;6.80;3.07;;;12.20;99.90;;;;;;4433390;28;656972;-69
2022/05/30 09:29:47;;;;;;;4.97;2.90;;;12.30;99.90;;;;;;4411137;28;656236;-68
2022/05/30 09:32:38;;;;;;;5.93;2.73;;;12.20;99.90;;;;;;4400118;28;657003;-69
2022/05/30 09:35:26;;;;;;;6.97;3.00;;;12.50;99.90;;;;;;4410398;28;656676;-69
2022/05/30 09:38:19;;;;;;;6.90;2.53;;;12.50;99.90;;;;;;4430823;28;657798;-68
2022/05/30 09:41:09;;;;;;;4.80;2.73;;;12.80;99.90;;;;;;4408171;28;656818;-69
2022/05/30 09:43:58;;;;;;;3.23;1.97;;;13.50;99.90;;;;;;4408919;28;656772;-69
2022/05/30 09:46:52;;;;;;;3.90;2.00;;;14.50;99.90;;;;;;4411850;28;656562;-69
2022/05/30 09:49:43;;;;;;;3.30;2.03;;;14.40;99.90;;;;;;4405269;28;656633;-68
2022/05/30 09:52:36;;;;;;;9.10;2.40;;;13.20;99.90;;;;;;4385895;28;656903;-68
2022/05/30 09:55:27;;;;;;;7.37;2.70;;;12.80;99.90;;;;;;4395863;28;656735;-68
2022/05/30 09:58:15;;;;;;;6.10;2.63;;;13.50;99.90;;;;;;4401336;28;656893;-69
2022/05/30 10:01:02;;;;;;;6.07;2.33;;;14.20;99.90;;;;;;4434166;28;656072;-69
2022/05/30 10:03:52;;;;;;;4.50;2.20;;;14.40;99.90;;;;;;4423873;28;656923;-68
2022/05/30 10:06:39;;;;;;;3.20;2.10;;;14.20;99.90;;;;;;4408038;28;656355;-68
2022/05/30 10:09:26;;;;;;;4.00;2.30;;;14.50;99.90;;;;;;4406892;28;657166;-68
2022/05/30 10:12:15;;;;;;;9.20;2.50;;;15.00;99.90;;;;;;4428584;28;657050;-68
2022/05/30 10:15:02;;;;;;;3.43;2.30;;;15.60;99.90;;;;;;4405663;28;657980;-69
2022/05/30 10:17:49;;;;;;;1.97;1.67;;;15.50;98.70;;;;;;4434088;28;656465;-68
2022/05/30 10:20:39;;;;;;;5.47;2.10;;;14.00;96.40;;;;;;4404043;28;656779;-68
2022/05/30 10:29:54;;;;;;;8.80;2.57;;;13.50;99.90;;;;;;4404852;28;656637;-68
2022/05/30 10:32:46;;;;;;;7.13;2.37;;;13.50;99.90;;;;;;4388565;28;657764;-69
2022/05/30 10:35:37;;;;;;;6.20;2.70;;;13.70;99.90;;;;;;4406660;28;658023;-68
2022/05/30 10:38:41;;;;;;;3.57;1.97;;;13.60;99.90;;;;;;4405783;28;656679;-68
2022/05/30 10:41:32;;;;;;;3.67;2.30;;;13.70;99.90;;;;;;4410315;28;656440;-68
2022/05/30 10:44:22;;;;;;;4.53;2.30;;;13.70;99.90;;;;;;4424798;28;656706;-69
2022/05/30 10:47:15;;;;;;;6.73;2.13;;;13.80;99.90;;;;;;4427499;28;657283;-68
2022/05/30 10:50:03;;;;;;;4.57;2.00;;;14.30;99.90;;;;;;4381368;28;656435;-68
2022/05/30 10:52:53;;;;;;;2.40;2.00;;;15.20;99.90;;;;;;4409480;28;656580;-69
2022/05/30 10:55:41;;;;;;;2.87;1.80;;;15.70;94.80;;;;;;4408387;28;656674;-68
2022/05/30 10:58:31;;;;;;;2.97;1.70;;;15.50;93.00;;;;;;4427580;28;657104;-69
2022/05/30 11:01:29;;;;;;;3.20;2.00;;;15.20;99.90;;;;;;4406549;28;657342;-68
2022/05/30 11:04:26;;;;;;;5.03;2.20;;;14.20;99.90;;;;;;4409036;28;656740;-68
2022/05/30 11:07:29;;;;;;;6.70;2.20;;;14.60;99.90;;;;;;4390845;28;657142;-68
2022/05/30 11:10:32;;;;;;;1.60;1.23;;;15.10;99.90;;;;;;4405008;28;656849;-68
2022/05/30 11:13:36;;;;;;;6.00;2.13;;;15.40;96.50;;;;;;4401652;28;656576;-68
2022/05/30 11:16:31;;;;;;;3.90;2.10;;;16.10;85.70;;;;;;4411182;28;656592;-68
2022/05/30 11:19:22;;;;;;;3.33;2.10;;;15.70;91.40;;;;;;4405941;28;657506;-68
2022/05/30 11:22:14;;;;;;;2.43;1.87;;;15.10;96.90;;;;;;4401034;28;656106;-68
2022/05/30 11:25:01;;;;;;;2.47;1.90;;;14.90;99.90;;;;;;4409588;28;656843;-68
2022/05/30 11:27:52;;;;;;;5.93;2.10;;;16.00;92.90;;;;;;4425483;28;656873;-68
2022/05/30 11:30:43;;;;;;;5.60;1.97;;;17.10;80.20;;;;;;4403039;28;656438;-68
2022/05/30 11:33:52;;;;;;;4.50;2.37;;;17.10;76.20;;;;;;4382153;28;656861;-69
2022/05/30 11:37:01;;;;;;;2.90;2.20;;;15.50;81.40;;;;;;4404174;28;656771;-68
2022/05/30 11:39:57;;;;;;;3.13;2.20;;;15.30;85.40;;;;;;4404974;28;656697;-68
2022/05/30 11:42:49;;;;;;;2.83;2.00;;;15.90;99.90;;;;;;4405225;28;656743;-69
2022/05/30 11:45:46;;;;;;;5.00;2.07;;;16.00;93.90;;;;;;4405701;28;656496;-69
2022/05/30 11:48:36;;;;;;;5.33;2.33;;;16.70;77.80;;;;;;4400848;28;656898;-68
2022/05/30 11:51:27;;;;;;;7.10;2.50;;;17.60;76.80;;;;;;4397838;28;657188;-68
2022/05/30 11:54:29;;;;;;;5.33;2.30;;;17.50;76.30;;;;;;4404457;28;656326;-69
2022/05/30 11:57:22;;;;;;;5.20;2.40;;;16.60;71.90;;;;;;4410264;28;656755;-68
2022/05/30 12:00:23;;;;;;;5.53;2.30;;;16.80;75.40;;;;;;4423307;28;656577;-69
2022/05/30 12:03:41;;;;;;;4.17;2.00;;;16.90;80.60;;;;;;4388073;28;656775;-69
2022/05/30 12:06:51;;;;;;;4.30;2.90;;;17.20;77.20;;;;;;4406023;28;657130;-69
2022/05/30 12:09:59;;;;;;;7.87;3.40;;;16.10;76.40;;;;;;4403835;28;656705;-68
2022/05/30 12:12:56;;;;;;;5.23;3.53;;;15.10;81.00;;;;;;4398887;28;656414;-68
2022/05/30 12:16:07;;;;;;;7.83;3.83;;;14.70;90.70;;;;;;4388054;28;656628;-68
2022/05/30 12:25:51;;;;;;;7.10;3.97;;;14.20;90.70;;;;;;4386970;28;656857;-68
2022/05/30 12:28:55;;;;;;;6.27;4.10;;;14.20;92.80;;;;;;4385563;28;656511;-68
2022/05/30 12:31:42;;;;;;;6.67;4.03;;;14.30;95.20;;;;;;4364802;28;656701;-68
2022/05/30 12:35:05;;;;;;;4.53;2.93;;;14.30;96.70;;;;;;4403566;28;656064;-69
2022/05/30 12:38:06;;;;;;;3.40;2.90;;;15.50;86.20;;;;;;4385612;28;656647;-69
2022/05/30 12:41:29;;;;;;;5.57;3.53;;;16.20;93.10;;;;;;4388244;28;656879;-69
2022/05/30 12:44:23;;;;;;;3.57;2.67;;;16.80;88.90;;;;;;4317269;28;656660;-68
2022/05/30 12:47:14;;;;;;;4.23;2.53;;;16.40;72.40;;;;;;4302217;28;657258;-69
2022/05/30 12:50:49;;;;;;;5.80;3.10;;;17.20;73.70;;;;;;4369395;28;656620;-68
2022/05/30 12:54:13;;;;;;;8.70;3.30;;;16.70;68.20;;;;;;4297113;28;656720;-69
2022/05/30 12:57:36;;;;;;;5.83;3.53;;;16.40;75.80;;;;;;4368090;28;656442;-69
2022/05/30 13:00:51;;;;;;;4.37;3.23;;;16.90;84.10;;;;;;4380493;28;656973;-68
2022/05/30 13:03:44;;;;;;;3.37;1.80;;;16.90;78.30;;;;;;4384396;28;657238;-68
2022/05/30 13:06:31;;;;;;;4.23;2.13;;;16.40;69.10;;;;;;4359877;28;656628;-68
2022/05/30 13:09:24;;;;;;;5.63;2.33;;;16.80;72.50;;;;;;4405061;28;656749;-68
2022/05/30 13:12:51;;;;;;;2.70;2.13;;;17.50;71.90;;;;;;4369985;28;657131;-69
2022/05/30 13:15:40;;;;;;;4.27;2.40;;;17.60;67.00;;;;;;4404644;28;656646;-69
2022/05/30 13:18:30;;;;;;;5.90;2.53;;;17.60;64.80;;;;;;4403127;28;657216;-69
2022/05/30 13:21:18;;;;;;;4.40;2.40;;;18.10;67.70;;;;;;4401895;28;656897;-69
2022/05/30 13:24:21;;;;;;;4.27;1.90;;;18.50;59.80;;;;;;4402436;28;656603;-70
2022/05/30 13:27:09;;;;;;;4.63;2.53;;;18.20;60.60;;;;;;4402541;28;657071;-69
2022/05/30 13:29:56;;;;;;;2.87;2.03;;;16.90;67.80;;;;;;4408253;28;657364;-68
2022/05/30 13:32:43;;;;;;;4.23;2.23;;;17.30;64.50;;;;;;4422736;28;656983;-68
2022/05/30 13:35:32;;;;;;;2.97;2.10;;;17.30;66.40;;;;;;4408252;28;657093;-70
2022/05/30 13:38:19;;;;;;;4.27;2.20;;;16.50;62.70;;;;;;4426284;28;656148;-69
2022/05/30 13:41:16;;;;;;;3.00;2.20;;;16.80;64.10;;;;;;4406981;28;656197;-69
2022/05/30 13:44:04;;;;;;;4.33;2.00;;;17.20;63.60;;;;;;4408691;28;656355;-69
2022/05/30 13:46:52;;;;;;;2.67;2.07;;;17.50;64.40;;;;;;4405118;28;657398;-69
2022/05/30 13:49:40;;;;;;;2.70;1.90;;;17.50;63.70;;;;;;4426659;28;656405;-69
2022/05/30 13:52:30;;;;;;;3.58;2.10;;;18.40;64.60;;;;;;4408493;28;656985;-69
2022/05/30 13:55:21;;;;;;;2.90;2.07;;;17.40;59.80;;;;;;4409534;28;657821;-68
2022/05/30 13:58:08;;;;;;;3.17;2.40;;;17.10;62.10;;;;;;4401995;28;656893;-69
2022/05/30 14:00:56;;;;;;;4.90;2.10;;;17.50;61.90;;;;;;4405758;28;656888;-69
2022/05/30 14:03:46;;;;;;;4.03;2.50;;;17.20;62.70;;;;;;4430150;28;657522;-69
2022/05/30 14:06:34;;;;;;;8.53;2.33;;;17.70;60.10;;;;;;4407344;28;657104;-69
2022/05/30 14:09:23;;;;;;;3.23;2.27;;;18.20;64.70;;;;;;4411038;28;656695;-69
2022/05/30 14:12:11;;;;;;;2.97;2.40;;;17.90;62.50;;;;;;4409651;28;656418;-69
2022/05/30 14:15:09;;;;;;;4.80;2.23;;;17.70;62.80;;;;;;4432209;28;656579;-69
2022/05/30 14:17:56;;;;;;;4.23;2.70;;;17.70;61.60;;;;;;4384192;28;657201;-69
2022/05/30 14:20:45;;;;;;;5.07;2.53;;;17.50;61.10;;;;;;4429031;28;657328;-69
2022/05/30 14:23:34;;;;;;;4.97;2.37;;;17.90;59.10;;;;;;4409148;28;657241;-69
2022/05/30 14:26:30;;;;;;;7.50;4.20;;;17.60;64.00;;;;;;4410796;28;656788;-69
2022/05/30 14:29:25;;;;;;;5.57;2.72;;;17.60;65.20;;;;;;4412385;28;657181;-68
2022/05/30 14:32:27;;;;;;;5.23;2.87;;;17.10;64.40;;;;;;4411566;28;656423;-69
2022/05/30 14:35:24;;;;;;;4.57;2.70;;;17.80;71.80;;;;;;4420244;28;656483;-68
2022/05/30 14:38:23;;;;;;;6.80;2.90;;;16.90;69.10;;;;;;4412142;28;656747;-68
2022/05/30 14:41:11;;;;;;;7.13;2.27;;;17.80;67.50;;;;;;4389815;28;656913;-69
2022/05/30 14:43:59;;;;;;;5.60;2.60;;;18.80;61.40;;;;;;4419463;28;656624;-69
2022/05/30 14:46:46;;;;;;;5.80;2.53;;;18.50;62.80;;;;;;4398644;28;656482;-69
2022/05/30 14:49:34;;;;;;;4.33;2.40;;;18.70;64.60;;;;;;4432065;28;657201;-69
2022/05/30 14:52:26;;;;;;;3.33;2.43;;;18.40;58.70;;;;;;4402413;28;656447;-68
2022/05/30 14:55:16;;;;;;;9.40;2.87;;;18.20;64.50;;;;;;4410507;28;656457;-68
2022/05/30 14:58:10;;;;;;;5.43;2.83;;;18.10;64.00;;;;;;4403553;28;656554;-68
2022/05/30 15:01:00;;;;;;;3.88;2.30;;;18.50;62.30;;;;;;4381598;28;657979;-68